sensor_id;sensor_type;location;lat;lon;timestamp;P1;durP1;ratioP1;P2;durP2;ratioP2
48613;SDS011;34408;51.426;5.444;2023-07-13T00:00:24;2.92;;;1.35;;
48613;SDS011;34408;51.426;5.444;2023-07-13T00:02:52;5.18;;;1.48;;
48613;SDS011;34408;51.426;5.444;2023-07-13T00:05:22;3.08;;;1.40;;
48613;SDS011;34408;51.426;5.444;2023-07-13T00:07:51;7.60;;;1.83;;
48613;SDS011;34408;51.426;5.444;2023-07-13T00:10:19;3.03;;;1.58;;
48613;SDS011;34408;51.426;5.444;2023-07-13T00:12:47;6.53;;;1.75;;
48613;SDS011;34408;51.426;5.444;2023-07-13T00:15:16;6.55;;;1.55;;
48613;SDS011;34408;51.426;5.444;2023-07-13T00:17:49;5.80;;;1.60;;
48613;SDS011;34408;51.426;5.444;2023-07-13T00:20:17;6.68;;;1.50;;
48613;SDS011;34408;51.426;5.444;2023-07-13T00:22:49;8.63;;;2.10;;
48613;SDS011;34408;51.426;5.444;2023-07-13T00:25:18;4.82;;;1.92;;
48613;SDS011;34408;51.426;5.444;2023-07-13T00:27:46;4.60;;;1.42;;
48613;SDS011;34408;51.426;5.444;2023-07-13T00:30:15;3.75;;;1.88;;
48613;SDS011;34408;51.426;5.444;2023-07-13T00:32:44;4.13;;;1.75;;
48613;SDS011;34408;51.426;5.444;2023-07-13T00:35:12;4.25;;;1.40;;
48613;SDS011;34408;51.426;5.444;2023-07-13T00:37:41;4.78;;;1.70;;
48613;SDS011;34408;51.426;5.444;2023-07-13T00:40:12;5.97;;;2.22;;
48613;SDS011;34408;51.426;5.444;2023-07-13T00:42:40;6.35;;;1.92;;
48613;SDS011;34408;51.426;5.444;2023-07-13T00:48:10;3.65;;;1.67;;
48613;SDS011;34408;51.426;5.444;2023-07-13T00:50:38;6.30;;;1.92;;
48613;SDS011;34408;51.426;5.444;2023-07-13T00:53:07;6.28;;;1.95;;
48613;SDS011;34408;51.426;5.444;2023-07-13T00:55:36;3.20;;;1.52;;
48613;SDS011;34408;51.426;5.444;2023-07-13T00:58:06;5.40;;;1.80;;
48613;SDS011;34408;51.426;5.444;2023-07-13T01:00:34;4.57;;;1.73;;
48613;SDS011;34408;51.426;5.444;2023-07-13T01:03:03;6.82;;;1.83;;
48613;SDS011;34408;51.426;5.444;2023-07-13T01:05:32;5.68;;;1.80;;
48613;SDS011;34408;51.426;5.444;2023-07-13T01:08:02;5.40;;;1.67;;
48613;SDS011;34408;51.426;5.444;2023-07-13T01:10:31;6.63;;;2.10;;
48613;SDS011;34408;51.426;5.444;2023-07-13T01:13:06;3.15;;;1.23;;
48613;SDS011;34408;51.426;5.444;2023-07-13T01:15:36;2.92;;;1.40;;
48613;SDS011;34408;51.426;5.444;2023-07-13T01:18:06;5.88;;;1.65;;
48613;SDS011;34408;51.426;5.444;2023-07-13T01:20:37;3.95;;;1.38;;
48613;SDS011;34408;51.426;5.444;2023-07-13T01:23:06;4.50;;;1.60;;
48613;SDS011;34408;51.426;5.444;2023-07-13T01:25:37;5.75;;;1.30;;
48613;SDS011;34408;51.426;5.444;2023-07-13T01:28:05;3.65;;;1.40;;
48613;SDS011;34408;51.426;5.444;2023-07-13T01:30:36;3.50;;;1.40;;
48613;SDS011;34408;51.426;5.444;2023-07-13T01:33:06;4.10;;;1.35;;
48613;SDS011;34408;51.426;5.444;2023-07-13T01:35:36;4.55;;;1.45;;
48613;SDS011;34408;51.426;5.444;2023-07-13T01:38:04;4.97;;;2.10;;
48613;SDS011;34408;51.426;5.444;2023-07-13T01:40:34;3.88;;;1.40;;
48613;SDS011;34408;51.426;5.444;2023-07-13T01:43:02;5.07;;;1.45;;
48613;SDS011;34408;51.426;5.444;2023-07-13T01:45:29;6.05;;;2.03;;
48613;SDS011;34408;51.426;5.444;2023-07-13T01:47:57;5.43;;;2.10;;
48613;SDS011;34408;51.426;5.444;2023-07-13T01:50:25;4.47;;;1.67;;
48613;SDS011;34408;51.426;5.444;2023-07-13T01:52:54;5.32;;;1.80;;
48613;SDS011;34408;51.426;5.444;2023-07-13T01:55:23;9.00;;;2.00;;
48613;SDS011;34408;51.426;5.444;2023-07-13T01:57:51;4.68;;;1.63;;
48613;SDS011;34408;51.426;5.444;2023-07-13T02:00:18;3.80;;;1.63;;
48613;SDS011;34408;51.426;5.444;2023-07-13T02:02:46;4.85;;;1.50;;
48613;SDS011;34408;51.426;5.444;2023-07-13T02:05:14;6.88;;;2.25;;
48613;SDS011;34408;51.426;5.444;2023-07-13T02:07:42;4.75;;;1.40;;
48613;SDS011;34408;51.426;5.444;2023-07-13T02:10:10;4.95;;;1.67;;
48613;SDS011;34408;51.426;5.444;2023-07-13T02:12:41;3.78;;;1.70;;
48613;SDS011;34408;51.426;5.444;2023-07-13T02:15:09;6.65;;;1.65;;
48613;SDS011;34408;51.426;5.444;2023-07-13T02:17:37;4.68;;;1.80;;
48613;SDS011;34408;51.426;5.444;2023-07-13T02:20:06;4.43;;;1.63;;
48613;SDS011;34408;51.426;5.444;2023-07-13T02:22:35;5.05;;;1.80;;
48613;SDS011;34408;51.426;5.444;2023-07-13T02:25:03;3.95;;;1.95;;
48613;SDS011;34408;51.426;5.444;2023-07-13T02:27:32;4.65;;;1.60;;
48613;SDS011;34408;51.426;5.444;2023-07-13T02:30:01;3.17;;;1.45;;
48613;SDS011;34408;51.426;5.444;2023-07-13T02:32:29;5.32;;;2.10;;
48613;SDS011;34408;51.426;5.444;2023-07-13T02:34:57;3.55;;;1.70;;
48613;SDS011;34408;51.426;5.444;2023-07-13T02:37:25;5.05;;;1.80;;
48613;SDS011;34408;51.426;5.444;2023-07-13T02:39:52;2.42;;;1.25;;
48613;SDS011;34408;51.426;5.444;2023-07-13T02:42:20;5.43;;;1.85;;
48613;SDS011;34408;51.426;5.444;2023-07-13T02:44:48;5.88;;;2.08;;
48613;SDS011;34408;51.426;5.444;2023-07-13T02:47:18;7.07;;;1.58;;
48613;SDS011;34408;51.426;5.444;2023-07-13T02:49:46;6.30;;;1.65;;
48613;SDS011;34408;51.426;5.444;2023-07-13T02:52:14;4.65;;;1.80;;
48613;SDS011;34408;51.426;5.444;2023-07-13T02:54:41;8.88;;;1.60;;
48613;SDS011;34408;51.426;5.444;2023-07-13T02:57:09;5.30;;;2.03;;
48613;SDS011;34408;51.426;5.444;2023-07-13T02:59:37;7.80;;;1.80;;
48613;SDS011;34408;51.426;5.444;2023-07-13T03:02:05;7.97;;;2.50;;
48613;SDS011;34408;51.426;5.444;2023-07-13T03:04:34;9.05;;;3.08;;
48613;SDS011;34408;51.426;5.444;2023-07-13T03:07:02;6.35;;;1.92;;
48613;SDS011;34408;51.426;5.444;2023-07-13T03:09:32;3.58;;;1.73;;
48613;SDS011;34408;51.426;5.444;2023-07-13T03:12:01;5.50;;;1.80;;
48613;SDS011;34408;51.426;5.444;2023-07-13T03:14:29;4.05;;;1.83;;
48613;SDS011;34408;51.426;5.444;2023-07-13T03:16:56;6.40;;;1.85;;
48613;SDS011;34408;51.426;5.444;2023-07-13T03:19:24;5.53;;;1.83;;
48613;SDS011;34408;51.426;5.444;2023-07-13T03:21:53;6.63;;;2.33;;
48613;SDS011;34408;51.426;5.444;2023-07-13T03:24:21;5.15;;;1.65;;
48613;SDS011;34408;51.426;5.444;2023-07-13T03:26:52;4.85;;;1.83;;
48613;SDS011;34408;51.426;5.444;2023-07-13T03:29:20;7.05;;;1.90;;
48613;SDS011;34408;51.426;5.444;2023-07-13T03:31:47;7.18;;;1.60;;
48613;SDS011;34408;51.426;5.444;2023-07-13T03:34:15;6.20;;;1.52;;
48613;SDS011;34408;51.426;5.444;2023-07-13T03:36:43;3.38;;;1.52;;
48613;SDS011;34408;51.426;5.444;2023-07-13T03:39:12;6.75;;;1.80;;
48613;SDS011;34408;51.426;5.444;2023-07-13T03:41:40;8.65;;;2.05;;
48613;SDS011;34408;51.426;5.444;2023-07-13T03:44:08;4.38;;;1.80;;
48613;SDS011;34408;51.426;5.444;2023-07-13T03:46:35;5.15;;;2.17;;
48613;SDS011;34408;51.426;5.444;2023-07-13T03:49:04;6.38;;;1.52;;
48613;SDS011;34408;51.426;5.444;2023-07-13T03:51:32;7.05;;;1.95;;
48613;SDS011;34408;51.426;5.444;2023-07-13T03:54:00;5.85;;;1.98;;
48613;SDS011;34408;51.426;5.444;2023-07-13T03:56:30;7.63;;;1.75;;
48613;SDS011;34408;51.426;5.444;2023-07-13T03:58:59;5.80;;;1.65;;
48613;SDS011;34408;51.426;5.444;2023-07-13T04:01:28;6.63;;;1.80;;
48613;SDS011;34408;51.426;5.444;2023-07-13T04:03:56;3.65;;;1.33;;
48613;SDS011;34408;51.426;5.444;2023-07-13T04:06:29;5.93;;;1.92;;
48613;SDS011;34408;51.426;5.444;2023-07-13T04:08:58;6.82;;;2.13;;
48613;SDS011;34408;51.426;5.444;2023-07-13T04:11:28;7.00;;;2.25;;
48613;SDS011;34408;51.426;5.444;2023-07-13T04:13:58;4.22;;;1.80;;
48613;SDS011;34408;51.426;5.444;2023-07-13T04:16:27;5.25;;;2.00;;
48613;SDS011;34408;51.426;5.444;2023-07-13T04:18:55;8.80;;;1.85;;
48613;SDS011;34408;51.426;5.444;2023-07-13T04:21:27;6.45;;;1.73;;
48613;SDS011;34408;51.426;5.444;2023-07-13T04:23:56;4.85;;;2.28;;
48613;SDS011;34408;51.426;5.444;2023-07-13T04:26:24;6.22;;;1.85;;
48613;SDS011;34408;51.426;5.444;2023-07-13T04:28:53;7.00;;;2.00;;
48613;SDS011;34408;51.426;5.444;2023-07-13T04:31:21;5.03;;;1.75;;
48613;SDS011;34408;51.426;5.444;2023-07-13T04:33:49;7.47;;;2.30;;
48613;SDS011;34408;51.426;5.444;2023-07-13T04:36:18;5.93;;;1.70;;
48613;SDS011;34408;51.426;5.444;2023-07-13T04:38:46;5.68;;;2.28;;
48613;SDS011;34408;51.426;5.444;2023-07-13T04:41:13;10.43;;;2.67;;
48613;SDS011;34408;51.426;5.444;2023-07-13T04:43:42;6.32;;;2.22;;
48613;SDS011;34408;51.426;5.444;2023-07-13T04:46:12;9.80;;;3.80;;
48613;SDS011;34408;51.426;5.444;2023-07-13T04:48:42;5.53;;;2.47;;
48613;SDS011;34408;51.426;5.444;2023-07-13T04:51:09;10.35;;;3.53;;
48613;SDS011;34408;51.426;5.444;2023-07-13T04:53:38;8.15;;;2.70;;
48613;SDS011;34408;51.426;5.444;2023-07-13T04:56:05;14.35;;;4.43;;
48613;SDS011;34408;51.426;5.444;2023-07-13T04:58:34;12.70;;;3.75;;
48613;SDS011;34408;51.426;5.444;2023-07-13T05:01:02;9.27;;;2.97;;
48613;SDS011;34408;51.426;5.444;2023-07-13T05:03:33;11.15;;;3.30;;
48613;SDS011;34408;51.426;5.444;2023-07-13T05:06:03;8.13;;;3.38;;
48613;SDS011;34408;51.426;5.444;2023-07-13T05:08:32;12.15;;;3.03;;
48613;SDS011;34408;51.426;5.444;2023-07-13T05:11:00;7.50;;;3.65;;
48613;SDS011;34408;51.426;5.444;2023-07-13T05:13:29;10.57;;;2.88;;
48613;SDS011;34408;51.426;5.444;2023-07-13T05:15:57;10.15;;;3.45;;
48613;SDS011;34408;51.426;5.444;2023-07-13T05:18:27;9.80;;;3.95;;
48613;SDS011;34408;51.426;5.444;2023-07-13T05:20:58;8.45;;;3.40;;
48613;SDS011;34408;51.426;5.444;2023-07-13T05:23:27;9.80;;;4.10;;
48613;SDS011;34408;51.426;5.444;2023-07-13T05:25:55;10.73;;;3.35;;
48613;SDS011;34408;51.426;5.444;2023-07-13T05:28:24;10.68;;;3.40;;
48613;SDS011;34408;51.426;5.444;2023-07-13T05:30:53;9.32;;;3.35;;
48613;SDS011;34408;51.426;5.444;2023-07-13T05:33:21;10.93;;;3.83;;
48613;SDS011;34408;51.426;5.444;2023-07-13T05:35:49;10.57;;;3.47;;
48613;SDS011;34408;51.426;5.444;2023-07-13T05:38:18;12.65;;;3.70;;
48613;SDS011;34408;51.426;5.444;2023-07-13T05:40:46;12.02;;;4.28;;
48613;SDS011;34408;51.426;5.444;2023-07-13T05:43:14;12.18;;;4.30;;
48613;SDS011;34408;51.426;5.444;2023-07-13T05:45:42;13.88;;;4.30;;
48613;SDS011;34408;51.426;5.444;2023-07-13T05:48:10;12.40;;;3.83;;
48613;SDS011;34408;51.426;5.444;2023-07-13T05:50:38;14.73;;;4.88;;
48613;SDS011;34408;51.426;5.444;2023-07-13T05:53:06;17.30;;;4.75;;
48613;SDS011;34408;51.426;5.444;2023-07-13T05:55:35;13.10;;;4.13;;
48613;SDS011;34408;51.426;5.444;2023-07-13T05:58:03;9.45;;;3.47;;
48613;SDS011;34408;51.426;5.444;2023-07-13T06:00:30;9.05;;;3.53;;
48613;SDS011;34408;51.426;5.444;2023-07-13T06:02:58;12.30;;;3.83;;
48613;SDS011;34408;51.426;5.444;2023-07-13T06:05:26;12.10;;;4.18;;
48613;SDS011;34408;51.426;5.444;2023-07-13T06:07:55;14.27;;;4.70;;
48613;SDS011;34408;51.426;5.444;2023-07-13T06:10:23;9.82;;;3.45;;
48613;SDS011;34408;51.426;5.444;2023-07-13T06:12:52;11.60;;;4.22;;
48613;SDS011;34408;51.426;5.444;2023-07-13T06:15:20;14.73;;;3.85;;
48613;SDS011;34408;51.426;5.444;2023-07-13T06:17:47;11.90;;;3.95;;
48613;SDS011;34408;51.426;5.444;2023-07-13T06:20:15;11.25;;;3.85;;
48613;SDS011;34408;51.426;5.444;2023-07-13T06:22:43;6.60;;;3.17;;
48613;SDS011;34408;51.426;5.444;2023-07-13T06:25:11;9.90;;;4.20;;
48613;SDS011;34408;51.426;5.444;2023-07-13T06:27:39;10.43;;;4.00;;
48613;SDS011;34408;51.426;5.444;2023-07-13T06:30:08;17.25;;;4.88;;
48613;SDS011;34408;51.426;5.444;2023-07-13T06:32:37;9.80;;;3.83;;
48613;SDS011;34408;51.426;5.444;2023-07-13T06:35:07;10.35;;;4.85;;
48613;SDS011;34408;51.426;5.444;2023-07-13T06:37:39;14.77;;;4.70;;
48613;SDS011;34408;51.426;5.444;2023-07-13T06:40:07;13.85;;;4.03;;
48613;SDS011;34408;51.426;5.444;2023-07-13T06:42:35;13.10;;;5.05;;
48613;SDS011;34408;51.426;5.444;2023-07-13T06:45:05;14.73;;;5.18;;
48613;SDS011;34408;51.426;5.444;2023-07-13T06:47:34;13.07;;;5.45;;
48613;SDS011;34408;51.426;5.444;2023-07-13T06:50:02;8.30;;;4.38;;
48613;SDS011;34408;51.426;5.444;2023-07-13T06:52:30;9.65;;;3.80;;
48613;SDS011;34408;51.426;5.444;2023-07-13T06:54:58;13.65;;;5.38;;
48613;SDS011;34408;51.426;5.444;2023-07-13T06:57:26;14.88;;;5.65;;
48613;SDS011;34408;51.426;5.444;2023-07-13T06:59:54;10.52;;;4.50;;
48613;SDS011;34408;51.426;5.444;2023-07-13T07:02:21;11.02;;;4.55;;
48613;SDS011;34408;51.426;5.444;2023-07-13T07:04:51;9.68;;;3.85;;
48613;SDS011;34408;51.426;5.444;2023-07-13T07:07:23;12.80;;;5.20;;
48613;SDS011;34408;51.426;5.444;2023-07-13T07:09:51;10.45;;;4.50;;
48613;SDS011;34408;51.426;5.444;2023-07-13T07:12:19;8.10;;;4.43;;
48613;SDS011;34408;51.426;5.444;2023-07-13T07:14:46;8.90;;;3.85;;
48613;SDS011;34408;51.426;5.444;2023-07-13T07:17:14;9.77;;;3.92;;
48613;SDS011;34408;51.426;5.444;2023-07-13T07:19:42;9.07;;;3.53;;
48613;SDS011;34408;51.426;5.444;2023-07-13T07:22:11;9.13;;;3.70;;
48613;SDS011;34408;51.426;5.444;2023-07-13T07:24:39;11.88;;;4.63;;
48613;SDS011;34408;51.426;5.444;2023-07-13T07:27:07;10.50;;;3.90;;
48613;SDS011;34408;51.426;5.444;2023-07-13T07:29:38;11.55;;;3.95;;
48613;SDS011;34408;51.426;5.444;2023-07-13T07:32:14;14.02;;;3.80;;
48613;SDS011;34408;51.426;5.444;2023-07-13T07:35:01;7.40;;;3.55;;
48613;SDS011;34408;51.426;5.444;2023-07-13T07:37:31;8.43;;;3.63;;
48613;SDS011;34408;51.426;5.444;2023-07-13T07:40:01;14.60;;;4.65;;
48613;SDS011;34408;51.426;5.444;2023-07-13T07:42:32;11.98;;;4.32;;
48613;SDS011;34408;51.426;5.444;2023-07-13T07:45:00;9.32;;;3.85;;
48613;SDS011;34408;51.426;5.444;2023-07-13T07:47:28;10.60;;;3.80;;
48613;SDS011;34408;51.426;5.444;2023-07-13T07:49:56;6.78;;;3.28;;
48613;SDS011;34408;51.426;5.444;2023-07-13T07:52:24;12.48;;;4.03;;
48613;SDS011;34408;51.426;5.444;2023-07-13T07:54:53;8.18;;;3.85;;
48613;SDS011;34408;51.426;5.444;2023-07-13T07:57:41;12.77;;;3.78;;
48613;SDS011;34408;51.426;5.444;2023-07-13T08:00:12;9.90;;;3.70;;
48613;SDS011;34408;51.426;5.444;2023-07-13T08:02:43;10.75;;;4.53;;
48613;SDS011;34408;51.426;5.444;2023-07-13T08:05:15;7.75;;;2.80;;
48613;SDS011;34408;51.426;5.444;2023-07-13T08:07:46;9.30;;;3.53;;
48613;SDS011;34408;51.426;5.444;2023-07-13T08:10:15;10.02;;;3.35;;
48613;SDS011;34408;51.426;5.444;2023-07-13T08:12:43;9.52;;;4.10;;
48613;SDS011;34408;51.426;5.444;2023-07-13T08:15:31;10.10;;;3.30;;
48613;SDS011;34408;51.426;5.444;2023-07-13T08:17:58;10.63;;;3.03;;
48613;SDS011;34408;51.426;5.444;2023-07-13T08:20:26;8.77;;;3.47;;
48613;SDS011;34408;51.426;5.444;2023-07-13T08:22:54;5.05;;;2.53;;
48613;SDS011;34408;51.426;5.444;2023-07-13T08:25:23;9.43;;;3.30;;
48613;SDS011;34408;51.426;5.444;2023-07-13T08:27:51;7.18;;;3.05;;
48613;SDS011;34408;51.426;5.444;2023-07-13T08:30:19;8.93;;;3.03;;
48613;SDS011;34408;51.426;5.444;2023-07-13T08:32:47;9.85;;;3.53;;
48613;SDS011;34408;51.426;5.444;2023-07-13T08:35:15;10.00;;;3.60;;
48613;SDS011;34408;51.426;5.444;2023-07-13T08:37:43;5.55;;;2.95;;
48613;SDS011;34408;51.426;5.444;2023-07-13T08:40:11;9.40;;;3.45;;
48613;SDS011;34408;51.426;5.444;2023-07-13T08:42:42;9.13;;;3.60;;
48613;SDS011;34408;51.426;5.444;2023-07-13T08:45:14;8.35;;;2.92;;
48613;SDS011;34408;51.426;5.444;2023-07-13T08:47:48;10.60;;;2.90;;
48613;SDS011;34408;51.426;5.444;2023-07-13T08:50:21;8.07;;;2.95;;
48613;SDS011;34408;51.426;5.444;2023-07-13T08:52:52;8.43;;;3.05;;
48613;SDS011;34408;51.426;5.444;2023-07-13T08:55:24;6.00;;;3.15;;
48613;SDS011;34408;51.426;5.444;2023-07-13T08:57:59;8.30;;;3.15;;
48613;SDS011;34408;51.426;5.444;2023-07-13T09:00:33;11.82;;;3.40;;
48613;SDS011;34408;51.426;5.444;2023-07-13T09:03:20;6.68;;;3.30;;
48613;SDS011;34408;51.426;5.444;2023-07-13T09:05:52;10.02;;;3.50;;
48613;SDS011;34408;51.426;5.444;2023-07-13T09:08:29;7.55;;;2.47;;
48613;SDS011;34408;51.426;5.444;2023-07-13T09:11:32;8.73;;;3.38;;
48613;SDS011;34408;51.426;5.444;2023-07-13T09:17:02;6.22;;;2.67;;
48613;SDS011;34408;51.426;5.444;2023-07-13T09:19:32;6.05;;;2.30;;
48613;SDS011;34408;51.426;5.444;2023-07-13T09:22:02;7.40;;;2.53;;
48613;SDS011;34408;51.426;5.444;2023-07-13T09:24:37;9.13;;;2.50;;
48613;SDS011;34408;51.426;5.444;2023-07-13T09:27:10;6.65;;;2.17;;
48613;SDS011;34408;51.426;5.444;2023-07-13T09:29:46;9.00;;;3.08;;
48613;SDS011;34408;51.426;5.444;2023-07-13T09:32:17;10.18;;;3.03;;
48613;SDS011;34408;51.426;5.444;2023-07-13T09:34:52;6.53;;;2.60;;
48613;SDS011;34408;51.426;5.444;2023-07-13T09:37:21;8.52;;;2.10;;
48613;SDS011;34408;51.426;5.444;2023-07-13T09:39:51;10.45;;;2.67;;
48613;SDS011;34408;51.426;5.444;2023-07-13T09:42:21;7.93;;;2.50;;
48613;SDS011;34408;51.426;5.444;2023-07-13T09:44:55;9.23;;;2.90;;
48613;SDS011;34408;51.426;5.444;2023-07-13T09:47:24;6.43;;;2.22;;
48613;SDS011;34408;51.426;5.444;2023-07-13T09:49:54;7.35;;;2.45;;
48613;SDS011;34408;51.426;5.444;2023-07-13T09:52:28;8.13;;;2.25;;
48613;SDS011;34408;51.426;5.444;2023-07-13T09:55:22;5.60;;;2.03;;
48613;SDS011;34408;51.426;5.444;2023-07-13T09:57:52;6.10;;;2.20;;
48613;SDS011;34408;51.426;5.444;2023-07-13T10:00:24;7.78;;;2.55;;
48613;SDS011;34408;51.426;5.444;2023-07-13T10:02:58;5.35;;;2.60;;
48613;SDS011;34408;51.426;5.444;2023-07-13T10:05:38;10.80;;;3.05;;
48613;SDS011;34408;51.426;5.444;2023-07-13T10:08:15;8.02;;;2.10;;
48613;SDS011;34408;51.426;5.444;2023-07-13T10:10:44;6.53;;;2.60;;
48613;SDS011;34408;51.426;5.444;2023-07-13T10:13:23;8.60;;;2.38;;
48613;SDS011;34408;51.426;5.444;2023-07-13T10:15:55;6.10;;;1.73;;
48613;SDS011;34408;51.426;5.444;2023-07-13T10:18:24;7.38;;;2.35;;
48613;SDS011;34408;51.426;5.444;2023-07-13T10:20:54;10.52;;;2.67;;
48613;SDS011;34408;51.426;5.444;2023-07-13T10:23:48;8.75;;;2.28;;
48613;SDS011;34408;51.426;5.444;2023-07-13T10:26:20;7.13;;;2.47;;
48613;SDS011;34408;51.426;5.444;2023-07-13T10:28:51;9.07;;;2.30;;
48613;SDS011;34408;51.426;5.444;2023-07-13T10:31:23;7.78;;;2.00;;
48613;SDS011;34408;51.426;5.444;2023-07-13T10:33:52;9.93;;;2.50;;
48613;SDS011;34408;51.426;5.444;2023-07-13T10:36:23;6.95;;;2.40;;
48613;SDS011;34408;51.426;5.444;2023-07-13T10:38:59;5.20;;;2.00;;
48613;SDS011;34408;51.426;5.444;2023-07-13T10:41:30;9.13;;;2.38;;
48613;SDS011;34408;51.426;5.444;2023-07-13T10:44:02;6.47;;;2.10;;
48613;SDS011;34408;51.426;5.444;2023-07-13T10:46:34;5.85;;;2.33;;
48613;SDS011;34408;51.426;5.444;2023-07-13T10:49:04;8.27;;;1.90;;
48613;SDS011;34408;51.426;5.444;2023-07-13T10:51:35;9.25;;;2.17;;
48613;SDS011;34408;51.426;5.444;2023-07-13T10:54:11;6.35;;;2.20;;
48613;SDS011;34408;51.426;5.444;2023-07-13T10:56:46;7.00;;;2.35;;
48613;SDS011;34408;51.426;5.444;2023-07-13T10:59:17;9.10;;;2.60;;
48613;SDS011;34408;51.426;5.444;2023-07-13T11:01:50;4.95;;;1.70;;
48613;SDS011;34408;51.426;5.444;2023-07-13T11:04:22;6.72;;;1.90;;
48613;SDS011;34408;51.426;5.444;2023-07-13T11:06:52;7.82;;;2.35;;
48613;SDS011;34408;51.426;5.444;2023-07-13T11:09:36;6.53;;;2.25;;
48613;SDS011;34408;51.426;5.444;2023-07-13T11:12:06;4.90;;;1.73;;
48613;SDS011;34408;51.426;5.444;2023-07-13T11:15:01;9.23;;;2.13;;
48613;SDS011;34408;51.426;5.444;2023-07-13T11:17:46;4.75;;;2.40;;
48613;SDS011;34408;51.426;5.444;2023-07-13T11:20:20;4.78;;;2.22;;
48613;SDS011;34408;51.426;5.444;2023-07-13T11:22:52;7.50;;;2.42;;
48613;SDS011;34408;51.426;5.444;2023-07-13T11:25:34;4.78;;;1.77;;
48613;SDS011;34408;51.426;5.444;2023-07-13T11:28:05;6.38;;;2.63;;
48613;SDS011;34408;51.426;5.444;2023-07-13T11:30:41;5.13;;;2.10;;
48613;SDS011;34408;51.426;5.444;2023-07-13T11:33:16;6.53;;;3.08;;
48613;SDS011;34408;51.426;5.444;2023-07-13T11:35:51;6.90;;;1.90;;
48613;SDS011;34408;51.426;5.444;2023-07-13T11:38:28;6.78;;;2.38;;
48613;SDS011;34408;51.426;5.444;2023-07-13T11:41:02;6.50;;;2.40;;
48613;SDS011;34408;51.426;5.444;2023-07-13T11:43:32;14.00;;;2.33;;
48613;SDS011;34408;51.426;5.444;2023-07-13T11:46:13;5.20;;;2.22;;
48613;SDS011;34408;51.426;5.444;2023-07-13T11:48:43;5.40;;;2.00;;
48613;SDS011;34408;51.426;5.444;2023-07-13T11:51:14;7.10;;;1.70;;
48613;SDS011;34408;51.426;5.444;2023-07-13T11:53:48;5.88;;;1.80;;
48613;SDS011;34408;51.426;5.444;2023-07-13T11:56:19;9.15;;;2.15;;
48613;SDS011;34408;51.426;5.444;2023-07-13T11:58:48;6.60;;;2.10;;
48613;SDS011;34408;51.426;5.444;2023-07-13T12:01:19;5.63;;;1.67;;
48613;SDS011;34408;51.426;5.444;2023-07-13T12:03:50;5.93;;;2.20;;
48613;SDS011;34408;51.426;5.444;2023-07-13T12:06:22;6.00;;;1.77;;
48613;SDS011;34408;51.426;5.444;2023-07-13T12:08:58;5.97;;;2.22;;
48613;SDS011;34408;51.426;5.444;2023-07-13T12:11:27;7.65;;;2.10;;
48613;SDS011;34408;51.426;5.444;2023-07-13T12:13:55;4.40;;;1.67;;
48613;SDS011;34408;51.426;5.444;2023-07-13T12:16:26;9.90;;;2.55;;
48613;SDS011;34408;51.426;5.444;2023-07-13T12:18:57;5.88;;;1.65;;
48613;SDS011;34408;51.426;5.444;2023-07-13T12:21:28;8.55;;;1.92;;
48613;SDS011;34408;51.426;5.444;2023-07-13T12:23:58;4.15;;;1.73;;
48613;SDS011;34408;51.426;5.444;2023-07-13T12:26:28;5.53;;;1.70;;
48613;SDS011;34408;51.426;5.444;2023-07-13T12:28:58;5.38;;;2.47;;
48613;SDS011;34408;51.426;5.444;2023-07-13T12:31:32;4.20;;;1.90;;
48613;SDS011;34408;51.426;5.444;2023-07-13T12:34:07;6.72;;;2.35;;
48613;SDS011;34408;51.426;5.444;2023-07-13T12:36:37;7.28;;;2.17;;
48613;SDS011;34408;51.426;5.444;2023-07-13T12:39:12;6.68;;;2.25;;
48613;SDS011;34408;51.426;5.444;2023-07-13T12:41:42;5.10;;;1.88;;
48613;SDS011;34408;51.426;5.444;2023-07-13T12:44:12;5.05;;;1.92;;
48613;SDS011;34408;51.426;5.444;2023-07-13T12:49:29;9.35;;;1.85;;
48613;SDS011;34408;51.426;5.444;2023-07-13T12:52:03;3.55;;;1.60;;
48613;SDS011;34408;51.426;5.444;2023-07-13T12:54:40;3.17;;;1.70;;
48613;SDS011;34408;51.426;5.444;2023-07-13T12:57:21;6.13;;;2.22;;
48613;SDS011;34408;51.426;5.444;2023-07-13T12:59:51;5.47;;;1.73;;
48613;SDS011;34408;51.426;5.444;2023-07-13T13:02:26;5.07;;;2.45;;
48613;SDS011;34408;51.426;5.444;2023-07-13T13:04:58;7.60;;;2.50;;
48613;SDS011;34408;51.426;5.444;2023-07-13T13:07:26;3.80;;;1.52;;
48613;SDS011;34408;51.426;5.444;2023-07-13T13:09:55;7.13;;;2.05;;
48613;SDS011;34408;51.426;5.444;2023-07-13T13:12:24;5.75;;;1.80;;
48613;SDS011;34408;51.426;5.444;2023-07-13T13:14:53;6.40;;;2.20;;
48613;SDS011;34408;51.426;5.444;2023-07-13T13:17:21;7.00;;;2.03;;
48613;SDS011;34408;51.426;5.444;2023-07-13T13:19:53;9.82;;;2.10;;
48613;SDS011;34408;51.426;5.444;2023-07-13T13:22:23;5.40;;;1.65;;
48613;SDS011;34408;51.426;5.444;2023-07-13T13:24:51;6.70;;;1.98;;
48613;SDS011;34408;51.426;5.444;2023-07-13T13:27:19;4.18;;;1.80;;
48613;SDS011;34408;51.426;5.444;2023-07-13T13:29:49;3.78;;;1.90;;
48613;SDS011;34408;51.426;5.444;2023-07-13T13:32:19;4.80;;;1.80;;
48613;SDS011;34408;51.426;5.444;2023-07-13T13:34:47;4.03;;;2.00;;
48613;SDS011;34408;51.426;5.444;2023-07-13T13:37:18;5.57;;;1.77;;
48613;SDS011;34408;51.426;5.444;2023-07-13T13:39:48;6.30;;;2.58;;
48613;SDS011;34408;51.426;5.444;2023-07-13T13:42:33;5.25;;;2.03;;
48613;SDS011;34408;51.426;5.444;2023-07-13T13:45:01;4.80;;;1.77;;
48613;SDS011;34408;51.426;5.444;2023-07-13T13:47:30;4.88;;;1.98;;
48613;SDS011;34408;51.426;5.444;2023-07-13T13:50:01;5.28;;;1.73;;
48613;SDS011;34408;51.426;5.444;2023-07-13T13:52:29;6.00;;;2.00;;
48613;SDS011;34408;51.426;5.444;2023-07-13T13:54:59;3.53;;;1.73;;
48613;SDS011;34408;51.426;5.444;2023-07-13T13:57:28;6.03;;;2.25;;
48613;SDS011;34408;51.426;5.444;2023-07-13T13:59:57;4.50;;;2.20;;
48613;SDS011;34408;51.426;5.444;2023-07-13T14:02:26;5.07;;;1.90;;
48613;SDS011;34408;51.426;5.444;2023-07-13T14:04:58;4.85;;;1.50;;
48613;SDS011;34408;51.426;5.444;2023-07-13T14:07:28;4.07;;;1.70;;
48613;SDS011;34408;51.426;5.444;2023-07-13T14:09:57;2.35;;;1.50;;
48613;SDS011;34408;51.426;5.444;2023-07-13T14:12:28;3.58;;;1.80;;
48613;SDS011;34408;51.426;5.444;2023-07-13T14:14:56;5.05;;;2.00;;
48613;SDS011;34408;51.426;5.444;2023-07-13T14:17:25;8.13;;;2.30;;
48613;SDS011;34408;51.426;5.444;2023-07-13T14:19:54;6.60;;;1.95;;
48613;SDS011;34408;51.426;5.444;2023-07-13T14:22:24;5.22;;;2.28;;
48613;SDS011;34408;51.426;5.444;2023-07-13T14:24:52;5.25;;;1.70;;
48613;SDS011;34408;51.426;5.444;2023-07-13T14:27:22;5.88;;;1.85;;
48613;SDS011;34408;51.426;5.444;2023-07-13T14:29:51;5.15;;;1.58;;
48613;SDS011;34408;51.426;5.444;2023-07-13T14:32:19;4.53;;;1.55;;
48613;SDS011;34408;51.426;5.444;2023-07-13T14:34:47;4.10;;;1.90;;
48613;SDS011;34408;51.426;5.444;2023-07-13T14:37:15;3.38;;;1.67;;
48613;SDS011;34408;51.426;5.444;2023-07-13T14:39:43;4.80;;;1.92;;
48613;SDS011;34408;51.426;5.444;2023-07-13T14:42:12;2.88;;;1.58;;
48613;SDS011;34408;51.426;5.444;2023-07-13T14:44:41;3.22;;;1.75;;
48613;SDS011;34408;51.426;5.444;2023-07-13T14:47:09;5.32;;;1.60;;
48613;SDS011;34408;51.426;5.444;2023-07-13T14:49:38;2.35;;;1.40;;
48613;SDS011;34408;51.426;5.444;2023-07-13T14:52:10;3.53;;;1.90;;
48613;SDS011;34408;51.426;5.444;2023-07-13T14:54:40;5.05;;;1.77;;
48613;SDS011;34408;51.426;5.444;2023-07-13T14:57:10;3.08;;;1.55;;
48613;SDS011;34408;51.426;5.444;2023-07-13T14:59:39;6.05;;;1.50;;
48613;SDS011;34408;51.426;5.444;2023-07-13T15:02:15;4.30;;;1.70;;
48613;SDS011;34408;51.426;5.444;2023-07-13T15:04:45;2.97;;;1.60;;
48613;SDS011;34408;51.426;5.444;2023-07-13T15:07:13;2.80;;;1.35;;
48613;SDS011;34408;51.426;5.444;2023-07-13T15:09:43;4.00;;;1.70;;
48613;SDS011;34408;51.426;5.444;2023-07-13T15:12:11;4.45;;;1.65;;